createdAt,value
2022-11-17T00:00:48.619Z,100.00
2022-11-17T00:03:19.629Z,100.00
2022-11-17T00:05:47.498Z,93.52
2022-11-17T00:08:15.305Z,100.00
2022-11-17T00:10:43.108Z,100.00
2022-11-17T00:13:30.009Z,100.00
2022-11-17T00:15:57.910Z,91.56
2022-11-17T00:18:43.255Z,98.51
2022-11-17T00:21:21.690Z,91.58
2022-11-17T00:23:50.210Z,100.00
2022-11-17T00:26:19.366Z,97.98
2022-11-17T00:28:48.645Z,79.75
2022-11-17T00:31:34.135Z,100.00
2022-11-17T00:34:07.786Z,91.99
2022-11-17T00:36:38.964Z,100.00
2022-11-17T00:39:07.507Z,93.12
2022-11-17T00:41:35.602Z,100.00
2022-11-17T00:44:05.647Z,94.84
2022-11-17T00:46:33.773Z,99.60
2022-11-17T00:49:01.700Z,89.30
2022-11-17T00:51:29.673Z,90.31
2022-11-17T00:53:57.891Z,100.00
2022-11-17T00:56:26.536Z,91.80
2022-11-17T00:58:54.670Z,100.00
2022-11-17T01:01:24.539Z,83.14
2022-11-17T01:04:02.635Z,87.44
2022-11-17T01:06:32.738Z,100.00
2022-11-17T01:09:01.061Z,100.00
2022-11-17T01:11:29.066Z,78.74
2022-11-17T01:13:59.071Z,81.22
2022-11-17T01:16:29.179Z,100.00
2022-11-17T01:18:57.136Z,100.00
2022-11-17T01:21:27.453Z,100.00
2022-11-17T01:23:57.150Z,94.01
2022-11-17T01:26:27.210Z,80.06
2022-11-17T01:28:55.145Z,100.00
2022-11-17T01:31:24.502Z,94.55
2022-11-17T01:33:53.849Z,90.98
2022-11-17T01:36:23.972Z,97.12
2022-11-17T01:38:51.976Z,97.36
2022-11-17T01:41:22.194Z,98.53
2022-11-17T01:43:52.214Z,99.32
2022-11-17T01:46:30.012Z,90.45
2022-11-17T01:49:04.771Z,84.48
2022-11-17T01:51:33.926Z,82.97
2022-11-17T01:54:02.216Z,74.23
2022-11-17T01:56:34.532Z,83.95
2022-11-17T01:59:06.960Z,79.01
2022-11-17T02:01:34.918Z,85.17
2022-11-17T02:04:06.505Z,88.16
2022-11-17T02:06:36.590Z,81.64
2022-11-17T02:09:05.081Z,89.20
2022-11-17T02:11:36.047Z,68.31
2022-11-17T02:14:05.232Z,76.16
2022-11-17T02:16:33.095Z,76.23
2022-11-17T02:19:01.018Z,79.88
2022-11-17T02:21:45.769Z,87.33
2022-11-17T02:24:53.614Z,76.65
2022-11-17T02:27:54.757Z,73.24
2022-11-17T02:30:23.832Z,82.30
2022-11-17T02:33:03.177Z,79.21
2022-11-17T02:35:37.840Z,77.51
2022-11-17T02:38:12.098Z,76.15
2022-11-17T02:40:43.777Z,75.14
2022-11-17T02:43:33.204Z,80.37
2022-11-17T02:46:05.138Z,83.26
2022-11-17T02:48:36.561Z,81.95
2022-11-17T02:51:05.337Z,84.64
2022-11-17T02:53:34.352Z,87.59
2022-11-17T02:56:02.914Z,74.20
2022-11-17T02:58:32.347Z,81.69
2022-11-17T03:01:34.511Z,78.04
2022-11-17T03:04:20.684Z,79.71
2022-11-17T03:06:52.941Z,74.31
2022-11-17T03:09:28.120Z,87.78
2022-11-17T03:12:02.446Z,84.19
2022-11-17T03:14:37.755Z,75.73
2022-11-17T03:17:08.397Z,80.55
2022-11-17T03:19:41.214Z,70.42
2022-11-17T03:22:13.860Z,81.83
2022-11-17T03:24:44.087Z,76.51
2022-11-17T03:27:15.567Z,70.57
2022-11-17T03:29:48.439Z,66.69
2022-11-17T03:32:16.725Z,77.50
2022-11-17T03:34:47.427Z,75.91
2022-11-17T03:37:17.046Z,79.93
2022-11-17T03:39:48.956Z,94.93
2022-11-17T03:42:20.406Z,78.48
2022-11-17T03:44:52.320Z,74.84
2022-11-17T03:47:21.308Z,68.84
2022-11-17T03:49:52.952Z,81.35
2022-11-17T03:52:21.412Z,83.04
2022-11-17T03:54:49.479Z,73.92
2022-11-17T03:57:21.275Z,79.33
2022-11-17T03:59:56.835Z,80.55
2022-11-17T04:02:25.969Z,77.67
2022-11-17T04:05:09.001Z,93.14
2022-11-17T04:07:40.065Z,78.70
2022-11-17T04:10:09.837Z,75.02
2022-11-17T04:12:55.211Z,74.28
2022-11-17T04:15:42.554Z,87.36
2022-11-17T04:18:11.620Z,78.11
2022-11-17T04:20:39.523Z,78.75
2022-11-17T04:23:08.527Z,73.10
2022-11-17T04:25:54.509Z,87.31
2022-11-17T04:28:38.064Z,81.06
2022-11-17T04:31:09.599Z,65.77
2022-11-17T04:33:38.645Z,74.50
2022-11-17T04:36:07.618Z,69.21
2022-11-17T04:38:35.933Z,66.09
2022-11-17T04:41:23.861Z,67.32
2022-11-17T04:43:52.195Z,77.60
2022-11-17T04:46:22.597Z,64.91
2022-11-17T04:48:50.446Z,64.95
2022-11-17T04:51:18.315Z,87.89
2022-11-17T04:53:48.769Z,75.06
2022-11-17T04:56:16.756Z,76.21
2022-11-17T04:58:44.743Z,83.90
2022-11-17T05:01:17.378Z,85.52
2022-11-17T05:03:47.927Z,94.49
2022-11-17T05:06:17.132Z,86.96
2022-11-17T05:08:45.530Z,81.87
2022-11-17T05:11:31.991Z,95.85
2022-11-17T05:14:00.482Z,78.71
2022-11-17T05:16:45.955Z,74.97
2022-11-17T05:19:16.987Z,100.00
2022-11-17T05:21:44.863Z,90.24
2022-11-17T05:24:14.208Z,91.53
2022-11-17T05:26:43.010Z,80.56
2022-11-17T05:29:14.785Z,93.83
2022-11-17T05:31:43.135Z,87.21
2022-11-17T05:34:13.253Z,89.69
2022-11-17T05:36:43.045Z,92.46
2022-11-17T05:39:11.234Z,78.94
2022-11-17T05:41:39.148Z,77.45
2022-11-17T05:44:07.128Z,79.79
2022-11-17T05:46:35.199Z,77.97
2022-11-17T05:49:04.532Z,70.62
2022-11-17T05:51:33.098Z,71.85
2022-11-17T05:54:02.438Z,74.13
2022-11-17T05:56:36.977Z,69.16
2022-11-17T05:59:14.380Z,66.79
2022-11-17T06:01:45.378Z,78.58
2022-11-17T06:04:15.741Z,86.69
2022-11-17T06:06:43.650Z,74.72
2022-11-17T06:09:13.155Z,72.65
2022-11-17T06:11:40.984Z,78.15
2022-11-17T06:14:08.934Z,82.46
2022-11-17T06:16:41.401Z,77.53
2022-11-17T06:19:13.279Z,75.26
2022-11-17T06:22:09.935Z,77.99
2022-11-17T06:24:30.863Z,86.41
2022-11-17T06:26:59.883Z,74.78
2022-11-17T06:29:30.005Z,75.33
2022-11-17T06:31:58.504Z,81.84
2022-11-17T06:34:26.698Z,83.18
2022-11-17T06:36:54.546Z,69.42
2022-11-17T06:39:22.425Z,72.00
2022-11-17T06:41:51.666Z,72.26
2022-11-17T06:44:19.563Z,66.07
2022-11-17T06:46:49.208Z,87.97
2022-11-17T06:49:17.462Z,86.22
2022-11-17T06:51:45.773Z,86.01
2022-11-17T06:54:15.004Z,79.60
2022-11-17T06:56:43.615Z,81.37
2022-11-17T06:59:12.815Z,74.74
2022-11-17T07:01:40.684Z,67.97
2022-11-17T07:04:08.909Z,71.72
2022-11-17T07:06:37.429Z,81.67
2022-11-17T07:09:05.306Z,89.04
2022-11-17T07:11:35.304Z,82.00
2022-11-17T07:14:03.918Z,76.21
2022-11-17T07:16:34.000Z,72.65
2022-11-17T07:19:03.627Z,81.19
2022-11-17T07:21:31.995Z,88.47
2022-11-17T07:24:00.066Z,73.93
2022-11-17T07:26:28.852Z,80.88
2022-11-17T07:28:56.690Z,75.47
2022-11-17T07:31:24.536Z,73.14
2022-11-17T07:33:54.457Z,74.82
2022-11-17T07:36:22.460Z,67.06
2022-11-17T07:38:50.319Z,80.72
2022-11-17T07:41:18.248Z,87.29
2022-11-17T07:43:46.184Z,77.93
2022-11-17T07:46:15.233Z,76.79
2022-11-17T07:48:43.899Z,82.79
2022-11-17T07:51:14.121Z,86.98
2022-11-17T07:53:42.047Z,77.27
2022-11-17T07:56:11.564Z,72.67
2022-11-17T07:58:40.068Z,81.38
2022-11-17T08:01:08.680Z,81.25
2022-11-17T08:03:36.692Z,77.24
2022-11-17T08:06:05.045Z,72.33
2022-11-17T08:08:35.064Z,63.98
2022-11-17T08:11:04.603Z,74.11
2022-11-17T08:13:32.479Z,70.90
2022-11-17T08:16:00.437Z,72.54
2022-11-17T08:18:28.584Z,77.41
2022-11-17T08:21:02.317Z,81.21
2022-11-17T08:23:30.151Z,73.45
2022-11-17T08:25:59.500Z,66.85
2022-11-17T08:28:27.349Z,83.45
2022-11-17T08:30:55.764Z,73.12
2022-11-17T08:33:23.668Z,78.02
2022-11-17T08:35:51.570Z,73.54
2022-11-17T08:38:19.488Z,80.82
2022-11-17T08:40:47.707Z,84.71
2022-11-17T08:43:16.992Z,71.85
2022-11-17T08:45:44.920Z,68.68
2022-11-17T08:48:12.748Z,73.85
2022-11-17T08:50:40.759Z,79.79
2022-11-17T08:53:13.904Z,75.78
2022-11-17T08:55:41.975Z,78.56
2022-11-17T08:58:09.969Z,70.89
2022-11-17T09:00:40.027Z,72.26
2022-11-17T09:03:08.299Z,66.46
2022-11-17T09:05:38.175Z,66.00
2022-11-17T09:08:37.989Z,80.84
2022-11-17T09:10:54.241Z,69.89
2022-11-17T09:13:22.104Z,76.79
2022-11-17T09:15:51.363Z,69.51
2022-11-17T09:18:19.290Z,67.62
2022-11-17T09:20:47.151Z,73.11
2022-11-17T09:23:15.104Z,77.61
2022-11-17T09:25:43.005Z,91.85
2022-11-17T09:28:10.873Z,89.77
2022-11-17T09:30:38.808Z,81.54
2022-11-17T09:33:08.037Z,73.46
2022-11-17T09:35:35.898Z,70.84
2022-11-17T09:38:03.827Z,83.33
2022-11-17T09:40:37.526Z,70.80
2022-11-17T09:43:08.035Z,75.28
2022-11-17T09:45:38.696Z,80.52
2022-11-17T09:48:39.605Z,74.57
2022-11-17T09:51:03.625Z,79.73
2022-11-17T09:53:38.519Z,72.71
2022-11-17T09:56:08.867Z,91.12
2022-11-17T09:58:45.196Z,84.81
2022-11-17T10:01:14.727Z,83.71
2022-11-17T10:03:46.155Z,71.82
2022-11-17T10:06:17.262Z,74.83
2022-11-17T10:08:49.650Z,68.79
2022-11-17T10:11:33.893Z,86.60
2022-11-17T10:14:11.838Z,98.18
2022-11-17T10:16:41.401Z,76.21
2022-11-17T10:19:16.559Z,78.38
2022-11-17T10:21:44.665Z,90.74
2022-11-17T10:24:12.553Z,71.42
2022-11-17T10:26:48.324Z,72.58
2022-11-17T10:29:23.179Z,82.48
2022-11-17T10:31:51.172Z,75.50
2022-11-17T10:34:40.209Z,83.39
2022-11-17T10:37:25.483Z,80.26
2022-11-17T10:40:08.169Z,87.92
2022-11-17T10:42:36.026Z,67.36
2022-11-17T10:45:04.040Z,88.18
2022-11-17T10:47:40.546Z,82.60
2022-11-17T10:50:24.636Z,69.11
2022-11-17T10:52:53.734Z,69.95
2022-11-17T10:55:25.728Z,68.41
2022-11-17T10:57:56.479Z,77.01
2022-11-17T11:00:26.311Z,81.45
2022-11-17T11:03:08.893Z,79.96
2022-11-17T11:05:38.962Z,68.75
2022-11-17T11:08:19.484Z,71.28
2022-11-17T11:10:48.522Z,73.72
2022-11-17T11:13:21.473Z,80.91
2022-11-17T11:15:49.373Z,82.86
2022-11-17T11:18:19.631Z,82.36
2022-11-17T11:20:57.262Z,75.72
2022-11-17T11:23:35.964Z,75.97
2022-11-17T11:26:13.125Z,70.82
2022-11-17T11:28:54.652Z,81.49
2022-11-17T11:31:27.788Z,82.57
2022-11-17T11:34:03.824Z,74.12
2022-11-17T11:36:37.784Z,76.14
2022-11-17T11:39:08.738Z,80.74
2022-11-17T11:41:50.490Z,77.64
2022-11-17T11:44:30.156Z,73.74
2022-11-17T11:47:01.799Z,73.54
2022-11-17T11:49:34.042Z,84.06
2022-11-17T11:52:05.813Z,87.69
2022-11-17T11:54:40.338Z,74.82
2022-11-17T11:57:11.012Z,70.95
2022-11-17T11:59:48.078Z,73.07
2022-11-17T12:02:26.211Z,73.70
2022-11-17T12:05:01.477Z,78.49
2022-11-17T12:07:36.549Z,81.50
2022-11-17T12:10:06.651Z,81.35
2022-11-17T12:12:37.645Z,86.66
2022-11-17T12:15:30.385Z,74.56
2022-11-17T12:18:03.972Z,74.56
2022-11-17T12:20:54.604Z,73.49
2022-11-17T12:23:54.380Z,72.25
2022-11-17T12:26:24.646Z,77.11
2022-11-17T12:29:24.516Z,79.29
2022-11-17T12:31:53.904Z,79.88
2022-11-17T12:34:27.528Z,93.18
2022-11-17T12:37:21.640Z,86.43
2022-11-17T12:40:04.781Z,71.59
2022-11-17T12:42:33.096Z,67.81
2022-11-17T12:45:12.229Z,81.16
2022-11-17T12:47:42.032Z,76.13
2022-11-17T12:50:33.944Z,77.50
2022-11-17T12:53:35.458Z,72.62
2022-11-17T12:56:33.248Z,71.85
2022-11-17T12:59:11.573Z,69.89
2022-11-17T13:01:46.718Z,65.69
2022-11-17T13:04:16.730Z,81.43
2022-11-17T13:07:00.914Z,84.50
2022-11-17T13:09:31.081Z,81.00
2022-11-17T13:12:05.392Z,76.12
2022-11-17T13:14:33.897Z,79.14
2022-11-17T13:17:02.680Z,79.81
2022-11-17T13:19:36.315Z,90.95
2022-11-17T13:22:06.587Z,74.67
2022-11-17T13:24:36.347Z,76.08
2022-11-17T13:27:08.373Z,80.36
2022-11-17T13:29:36.441Z,76.38
2022-11-17T13:32:18.558Z,78.71
2022-11-17T13:34:49.310Z,72.46
2022-11-17T13:37:19.023Z,74.61
2022-11-17T13:40:19.755Z,72.05
2022-11-17T13:42:49.558Z,75.48
2022-11-17T13:45:17.697Z,82.40
2022-11-17T13:47:47.857Z,81.78
2022-11-17T13:50:34.274Z,67.70
2022-11-17T13:53:18.187Z,62.62
2022-11-17T13:55:46.910Z,79.77
2022-11-17T13:58:31.107Z,74.50
2022-11-17T14:01:00.294Z,71.73
2022-11-17T14:03:34.319Z,71.49
2022-11-17T14:06:02.604Z,71.09
2022-11-17T14:08:33.852Z,77.91
2022-11-17T14:11:16.463Z,77.76
2022-11-17T14:13:47.124Z,67.74
2022-11-17T14:16:24.993Z,81.67
2022-11-17T14:19:03.912Z,87.66
2022-11-17T14:21:33.717Z,87.47
2022-11-17T14:24:08.104Z,66.10
2022-11-17T14:26:37.844Z,64.97
2022-11-17T14:29:07.453Z,66.10
2022-11-17T14:31:35.360Z,66.96
2022-11-17T14:34:03.187Z,90.26
2022-11-17T14:36:32.849Z,77.28
2022-11-17T14:39:02.607Z,80.95
2022-11-17T14:44:50.641Z,67.91
2022-11-17T14:47:19.070Z,76.39
2022-11-17T14:49:47.026Z,78.83
2022-11-17T14:52:14.938Z,79.49
2022-11-17T14:54:43.075Z,74.90
2022-11-17T14:57:11.016Z,68.83
2022-11-17T14:59:39.272Z,74.32
2022-11-17T15:02:09.926Z,82.20
2022-11-17T15:04:56.493Z,73.17
2022-11-17T15:07:25.205Z,80.89
2022-11-17T15:09:53.304Z,81.52
2022-11-17T15:12:21.384Z,81.74
2022-11-17T15:14:49.393Z,81.30
2022-11-17T15:17:18.868Z,85.76
2022-11-17T15:19:46.775Z,73.61
2022-11-17T15:22:14.978Z,87.46
2022-11-17T15:24:43.186Z,98.24
2022-11-17T15:27:11.397Z,88.88
2022-11-17T15:29:39.559Z,81.47
2022-11-17T15:32:08.136Z,74.48
2022-11-17T15:34:37.422Z,97.38
2022-11-17T15:37:05.535Z,78.99
2022-11-17T15:39:33.653Z,96.55
2022-11-17T15:42:01.599Z,100.00
2022-11-17T15:44:30.105Z,96.71
2022-11-17T15:46:58.007Z,100.00
2022-11-17T15:49:28.751Z,93.06
2022-11-17T15:51:57.984Z,100.00
2022-11-17T15:54:26.134Z,96.69
2022-11-17T15:56:54.031Z,100.00
2022-11-17T15:59:22.551Z,100.00
2022-11-17T16:01:50.696Z,100.00
2022-11-17T16:04:18.632Z,100.00
2022-11-17T16:06:47.296Z,100.00
2022-11-17T16:09:17.373Z,99.14
2022-11-17T16:11:45.705Z,100.00
2022-11-17T16:14:14.783Z,100.00
2022-11-17T16:16:43.712Z,100.00
2022-11-17T16:19:11.834Z,100.00
2022-11-17T16:21:39.771Z,100.00
2022-11-17T16:24:08.092Z,100.00
2022-11-17T16:26:37.763Z,100.00
2022-11-17T16:29:07.412Z,100.00
2022-11-17T16:31:37.348Z,100.00
2022-11-17T16:34:06.588Z,100.00
2022-11-17T16:36:37.011Z,96.12
2022-11-17T16:39:06.493Z,93.94
2022-11-17T16:41:35.383Z,100.00
2022-11-17T16:44:09.031Z,100.00
2022-11-17T16:46:37.348Z,100.00
2022-11-17T16:49:07.844Z,100.00
2022-11-17T16:51:35.944Z,100.00
2022-11-17T16:54:05.284Z,100.00
2022-11-17T16:56:33.903Z,100.00
2022-11-17T16:59:02.210Z,100.00
2022-11-17T17:01:33.014Z,100.00
2022-11-17T17:04:02.296Z,100.00
2022-11-17T17:06:30.837Z,100.00
2022-11-17T17:09:00.460Z,100.00
2022-11-17T17:11:31.406Z,100.00
2022-11-17T17:14:00.254Z,100.00
2022-11-17T17:16:29.010Z,100.00
2022-11-17T17:19:00.189Z,100.00
2022-11-17T17:21:30.003Z,100.00
2022-11-17T17:23:58.204Z,100.00
2022-11-17T17:26:27.354Z,100.00
2022-11-17T17:28:56.858Z,100.00
2022-11-17T17:31:25.895Z,100.00
2022-11-17T17:33:54.076Z,100.00
2022-11-17T17:36:24.549Z,100.00
2022-11-17T17:38:56.504Z,100.00
2022-11-17T17:41:26.040Z,100.00
2022-11-17T17:43:58.132Z,100.00
2022-11-17T17:46:26.376Z,100.00
2022-11-17T17:48:54.245Z,100.00
2022-11-17T17:51:24.975Z,100.00
2022-11-17T17:53:53.195Z,100.00
2022-11-17T17:56:22.218Z,94.72
2022-11-17T17:58:50.767Z,100.00
2022-11-17T18:01:20.217Z,100.00
2022-11-17T18:03:50.135Z,100.00
2022-11-17T18:06:19.905Z,100.00
2022-11-17T18:08:49.678Z,100.00
2022-11-17T18:11:18.986Z,100.00
2022-11-17T18:13:48.464Z,100.00
2022-11-17T18:16:18.027Z,100.00
2022-11-17T18:18:46.260Z,100.00
2022-11-17T18:21:15.985Z,100.00
2022-11-17T18:23:44.210Z,100.00
2022-11-17T18:26:15.680Z,100.00
2022-11-17T18:28:44.833Z,100.00
2022-11-17T18:31:12.758Z,100.00
2022-11-17T18:33:40.673Z,100.00
2022-11-17T18:36:10.252Z,100.00
2022-11-17T18:38:38.641Z,86.30
2022-11-17T18:41:07.729Z,100.00
2022-11-17T18:43:37.582Z,100.00
2022-11-17T18:46:06.725Z,100.00
2022-11-17T18:48:35.116Z,100.00
2022-11-17T18:51:20.364Z,100.00
2022-11-17T18:53:49.084Z,100.00
2022-11-17T18:56:18.784Z,100.00
2022-11-17T18:58:48.080Z,100.00
2022-11-17T19:01:18.029Z,100.00
2022-11-17T19:03:47.244Z,100.00
2022-11-17T19:06:16.461Z,100.00
2022-11-17T19:08:44.701Z,100.00
2022-11-17T19:11:12.789Z,93.57
2022-11-17T19:13:42.078Z,100.00
2022-11-17T19:16:13.044Z,100.00
2022-11-17T19:18:41.502Z,100.00
2022-11-17T19:21:11.295Z,100.00
2022-11-17T19:23:41.766Z,100.00
2022-11-17T19:26:11.133Z,100.00
2022-11-17T19:28:39.611Z,100.00
2022-11-17T19:31:09.023Z,100.00
2022-11-17T19:33:39.813Z,100.00
2022-11-17T19:36:09.825Z,100.00
2022-11-17T19:38:38.575Z,100.00
2022-11-17T19:41:08.102Z,100.00
2022-11-17T19:43:41.700Z,100.00
2022-11-17T19:46:13.580Z,97.09
2022-11-17T19:48:43.502Z,100.00
2022-11-17T19:51:16.587Z,100.00
2022-11-17T19:53:44.658Z,100.00
2022-11-17T19:56:12.577Z,100.00
2022-11-17T19:58:41.515Z,100.00
2022-11-17T20:01:11.702Z,100.00
2022-11-17T20:03:40.315Z,100.00
2022-11-17T20:06:10.323Z,100.00
2022-11-17T20:08:38.682Z,100.00
2022-11-17T20:11:08.438Z,100.00
2022-11-17T20:13:36.996Z,100.00
2022-11-17T20:16:11.726Z,100.00
2022-11-17T20:18:40.265Z,100.00
2022-11-17T20:21:10.379Z,83.01
2022-11-17T20:23:39.125Z,93.40
2022-11-17T20:26:08.497Z,100.00
2022-11-17T20:28:37.364Z,100.00
2022-11-17T20:31:09.787Z,100.00
2022-11-17T20:33:37.970Z,100.00
2022-11-17T20:36:06.664Z,100.00
2022-11-17T20:38:36.568Z,100.00
2022-11-17T20:41:05.563Z,100.00
2022-11-17T20:43:34.694Z,100.00
2022-11-17T20:46:03.528Z,100.00
2022-11-17T20:48:33.975Z,100.00
2022-11-17T20:51:03.981Z,100.00
2022-11-17T20:53:32.237Z,100.00
2022-11-17T20:56:02.582Z,100.00
2022-11-17T20:58:30.858Z,100.00
2022-11-17T21:00:58.846Z,100.00
2022-11-17T21:03:27.630Z,100.00
2022-11-17T21:05:58.745Z,100.00
2022-11-17T21:08:28.460Z,100.00
2022-11-17T21:10:56.949Z,100.00
2022-11-17T21:13:26.757Z,100.00
2022-11-17T21:16:06.492Z,100.00
2022-11-17T21:18:34.830Z,100.00
2022-11-17T21:21:04.664Z,100.00
2022-11-17T21:23:32.725Z,95.47
2022-11-17T21:26:04.531Z,100.00
2022-11-17T21:28:33.876Z,100.00
2022-11-17T21:31:07.618Z,100.00
2022-11-17T21:33:35.837Z,100.00
2022-11-17T21:36:04.029Z,100.00
2022-11-17T21:38:31.904Z,100.00
2022-11-17T21:41:02.966Z,100.00
2022-11-17T21:43:30.986Z,96.92
2022-11-17T21:46:03.555Z,100.00
2022-11-17T21:48:31.472Z,79.49
2022-11-17T21:50:59.696Z,94.94
2022-11-17T21:53:27.648Z,85.28
2022-11-17T21:56:01.262Z,83.30
2022-11-17T21:58:29.205Z,72.45
2022-11-17T22:00:57.422Z,77.12
2022-11-17T22:03:27.492Z,94.49
2022-11-17T22:06:00.930Z,84.90
2022-11-17T22:08:30.001Z,88.64
2022-11-17T22:10:57.889Z,99.68
2022-11-17T22:13:25.704Z,85.27
2022-11-17T22:15:53.881Z,97.79
2022-11-17T22:18:21.739Z,80.76
2022-11-17T22:20:52.887Z,98.09
2022-11-17T22:23:20.689Z,95.30
2022-11-17T22:25:54.299Z,83.23
2022-11-17T22:28:22.385Z,68.90
2022-11-17T22:30:50.588Z,81.92
2022-11-17T22:33:18.617Z,83.96
2022-11-17T22:35:46.607Z,88.77
2022-11-17T22:38:16.285Z,75.20
2022-11-17T22:40:44.341Z,99.63
2022-11-17T22:43:15.425Z,84.64
2022-11-17T22:45:43.857Z,93.22
2022-11-17T22:48:11.674Z,93.22
2022-11-17T22:50:39.572Z,81.35
2022-11-17T22:53:07.622Z,79.63
2022-11-17T22:55:37.468Z,84.95
2022-11-17T22:58:05.308Z,99.40
2022-11-17T23:00:33.171Z,100.00
2022-11-17T23:03:01.107Z,92.06
2022-11-17T23:05:29.005Z,91.89
2022-11-17T23:07:56.851Z,100.00
2022-11-17T23:10:24.779Z,86.02
2022-11-17T23:12:54.537Z,100.00
2022-11-17T23:15:22.661Z,100.00
2022-11-17T23:17:50.516Z,100.00
2022-11-17T23:20:18.523Z,100.00
2022-11-17T23:22:46.401Z,100.00
2022-11-17T23:25:14.293Z,100.00
2022-11-17T23:27:42.167Z,100.00
2022-11-17T23:30:12.959Z,100.00
2022-11-17T23:32:40.871Z,100.00
2022-11-17T23:35:09.800Z,100.00
2022-11-17T23:37:37.666Z,100.00
2022-11-17T23:40:06.396Z,100.00
2022-11-17T23:42:42.836Z,100.00
2022-11-17T23:45:14.363Z,100.00
2022-11-17T23:47:42.272Z,100.00
2022-11-17T23:50:10.396Z,100.00
2022-11-17T23:52:38.247Z,100.00
2022-11-17T23:55:06.819Z,100.00
2022-11-17T23:57:34.949Z,100.00
